createdAt,value
2018-01-27T00:00:54.787Z,965.35
2018-01-27T00:01:54.724Z,965.42
2018-01-27T00:02:54.665Z,965.38
2018-01-27T00:03:54.604Z,965.35
2018-01-27T00:04:54.543Z,965.40
2018-01-27T00:05:54.485Z,965.39
2018-01-27T00:06:54.427Z,965.40
2018-01-27T00:07:54.364Z,965.43
2018-01-27T00:08:54.306Z,965.41
2018-01-27T00:09:54.244Z,965.42
2018-01-27T00:10:54.185Z,965.38
2018-01-27T00:11:54.126Z,965.40
2018-01-27T00:12:54.067Z,965.39
2018-01-27T00:13:54.004Z,965.42
2018-01-27T00:14:53.944Z,965.45
2018-01-27T00:15:53.884Z,965.48
2018-01-27T00:16:53.827Z,965.45
2018-01-27T00:17:53.764Z,965.49
2018-01-27T00:18:53.705Z,965.47
2018-01-27T00:19:53.646Z,965.43
2018-01-27T00:20:53.588Z,965.46
2018-01-27T00:21:53.523Z,965.46
2018-01-27T00:22:53.464Z,965.47
2018-01-27T00:23:53.411Z,965.51
2018-01-27T00:24:53.343Z,965.51
2018-01-27T00:25:53.285Z,965.48
2018-01-27T00:26:53.224Z,965.51
2018-01-27T00:27:53.166Z,965.47
2018-01-27T00:28:53.102Z,965.52
2018-01-27T00:29:53.041Z,965.49
2018-01-27T00:30:52.985Z,965.53
2018-01-27T00:31:52.926Z,965.50
2018-01-27T00:32:52.863Z,965.55
2018-01-27T00:33:52.805Z,965.55
2018-01-27T00:34:52.743Z,965.50
2018-01-27T00:35:52.685Z,965.48
2018-01-27T00:36:52.624Z,965.50
2018-01-27T00:37:52.562Z,965.50
2018-01-27T00:38:52.505Z,965.49
2018-01-27T00:39:52.444Z,965.58
2018-01-27T00:40:52.383Z,965.60
2018-01-27T00:41:52.323Z,965.63
2018-01-27T00:42:52.262Z,965.63
2018-01-27T00:43:52.202Z,965.66
2018-01-27T00:44:52.146Z,965.67
2018-01-27T00:45:52.084Z,965.69
2018-01-27T00:46:52.025Z,965.70
2018-01-27T00:47:51.966Z,965.68
2018-01-27T00:48:51.902Z,965.70
2018-01-27T00:49:51.849Z,965.70
2018-01-27T00:50:51.782Z,965.71
2018-01-27T00:51:51.724Z,965.71
2018-01-27T00:52:51.663Z,965.72
2018-01-27T00:53:51.602Z,965.71
2018-01-27T00:54:51.543Z,965.72
2018-01-27T00:55:51.484Z,965.75
2018-01-27T00:56:51.421Z,965.77
2018-01-27T00:57:51.363Z,965.75
2018-01-27T00:58:51.302Z,965.83
2018-01-27T00:59:51.244Z,965.77
2018-01-27T01:00:51.181Z,965.79
2018-01-27T01:01:51.123Z,965.83
2018-01-27T01:02:51.063Z,965.83
2018-01-27T01:03:51.003Z,965.89
2018-01-27T01:04:50.943Z,965.89
2018-01-27T01:05:50.884Z,965.93
2018-01-27T01:06:50.824Z,965.88
2018-01-27T01:07:50.762Z,965.90
2018-01-27T01:08:50.701Z,965.88
2018-01-27T01:09:50.646Z,965.87
2018-01-27T01:10:50.582Z,965.89
2018-01-27T01:11:50.523Z,965.86
2018-01-27T01:12:50.462Z,965.83
2018-01-27T01:13:50.402Z,965.86
2018-01-27T01:14:50.344Z,965.94
2018-01-27T01:15:50.285Z,965.88
2018-01-27T01:16:50.223Z,965.93
2018-01-27T01:17:50.164Z,965.96
2018-01-27T01:18:50.103Z,965.93
2018-01-27T01:19:50.041Z,966.01
2018-01-27T01:20:49.984Z,965.99
2018-01-27T01:21:49.925Z,966.01
2018-01-27T01:22:49.866Z,966.04
2018-01-27T01:23:49.804Z,966.07
2018-01-27T01:24:49.744Z,966.04
2018-01-27T01:25:49.686Z,966.06
2018-01-27T01:26:49.624Z,966.06
2018-01-27T01:27:49.563Z,966.03
2018-01-27T01:28:49.524Z,966.01
2018-01-27T01:29:49.444Z,966.03
2018-01-27T01:30:49.385Z,966.03
2018-01-27T01:31:49.327Z,966.05
2018-01-27T01:32:49.263Z,966.04
2018-01-27T01:33:49.205Z,966.04
2018-01-27T01:34:49.145Z,966.05
2018-01-27T01:35:49.085Z,966.04
2018-01-27T01:36:49.022Z,966.04
2018-01-27T01:37:48.964Z,966.04
2018-01-27T01:38:48.905Z,966.01
2018-01-27T01:39:48.845Z,966.03
2018-01-27T01:40:48.784Z,966.03
2018-01-27T01:41:48.729Z,966.07
2018-01-27T01:42:48.668Z,966.08
2018-01-27T01:43:48.608Z,966.06
2018-01-27T01:44:48.544Z,966.05
2018-01-27T01:45:48.486Z,966.13
2018-01-27T01:46:48.427Z,966.13
2018-01-27T01:47:48.367Z,966.15
2018-01-27T01:48:48.306Z,966.16
2018-01-27T01:49:48.245Z,966.15
2018-01-27T01:50:48.187Z,966.15
2018-01-27T01:51:48.126Z,966.13
2018-01-27T01:52:48.067Z,966.16
2018-01-27T01:53:48.007Z,966.19
2018-01-27T01:54:47.947Z,966.19
2018-01-27T01:55:47.887Z,966.21
2018-01-27T01:56:47.828Z,966.21
2018-01-27T01:57:47.767Z,966.22
2018-01-27T01:58:47.709Z,966.25
2018-01-27T01:59:47.655Z,966.23
2018-01-27T02:00:47.588Z,966.23
2018-01-27T02:01:47.527Z,966.23
2018-01-27T02:02:47.467Z,966.22
2018-01-27T02:03:47.409Z,966.21
2018-01-27T02:04:47.348Z,966.26
2018-01-27T02:05:47.288Z,966.28
2018-01-27T02:06:47.228Z,966.25
2018-01-27T02:07:47.170Z,966.24
2018-01-27T02:08:47.108Z,966.27
2018-01-27T02:09:47.049Z,966.27
2018-01-27T02:10:46.987Z,966.30
2018-01-27T02:11:46.928Z,966.33
2018-01-27T02:12:46.868Z,966.32
2018-01-27T02:13:46.809Z,966.28
2018-01-27T02:14:46.748Z,966.27
2018-01-27T02:15:46.688Z,966.29
2018-01-27T02:16:46.627Z,966.28
2018-01-27T02:17:46.568Z,966.29
2018-01-27T02:18:46.511Z,966.25
2018-01-27T02:19:46.453Z,966.27
2018-01-27T02:20:46.390Z,966.27
2018-01-27T02:21:46.328Z,966.25
2018-01-27T02:22:46.272Z,966.27
2018-01-27T02:23:46.208Z,966.25
2018-01-27T02:24:46.149Z,966.22
2018-01-27T02:25:46.088Z,966.25
2018-01-27T02:26:46.032Z,966.29
2018-01-27T02:27:45.968Z,966.35
2018-01-27T02:28:45.910Z,966.32
2018-01-27T02:29:45.851Z,966.40
2018-01-27T02:30:45.789Z,966.29
2018-01-27T02:31:45.729Z,966.34
2018-01-27T02:32:45.667Z,966.36
2018-01-27T02:33:45.608Z,966.36
2018-01-27T02:34:45.550Z,966.38
2018-01-27T02:35:45.490Z,966.35
2018-01-27T02:36:45.428Z,966.36
2018-01-27T02:37:45.370Z,966.41
2018-01-27T02:38:45.308Z,966.36
2018-01-27T02:39:45.249Z,966.38
2018-01-27T02:40:45.188Z,966.40
2018-01-27T02:41:45.134Z,966.40
2018-01-27T02:42:45.070Z,966.38
2018-01-27T02:43:45.011Z,966.38
2018-01-27T02:44:44.948Z,966.37
2018-01-27T02:45:44.888Z,966.45
2018-01-27T02:46:44.830Z,966.47
2018-01-27T02:47:44.772Z,966.45
2018-01-27T02:48:44.710Z,966.49
2018-01-27T02:49:44.653Z,966.47
2018-01-27T02:50:44.590Z,966.49
2018-01-27T02:51:44.528Z,966.48
2018-01-27T02:52:44.471Z,966.47
2018-01-27T02:53:44.407Z,966.49
2018-01-27T02:54:44.351Z,966.54
2018-01-27T02:55:44.289Z,966.50
2018-01-27T02:56:44.228Z,966.48
2018-01-27T02:57:44.168Z,966.50
2018-01-27T02:58:44.107Z,966.51
2018-01-27T02:59:44.047Z,966.51
2018-01-27T03:00:43.986Z,966.54
2018-01-27T03:01:43.927Z,966.50
2018-01-27T03:02:43.868Z,966.51
2018-01-27T03:03:43.807Z,966.56
2018-01-27T03:04:43.747Z,966.54
2018-01-27T03:05:43.686Z,966.56
2018-01-27T03:06:43.626Z,966.60
2018-01-27T03:07:43.566Z,966.61
2018-01-27T03:08:43.507Z,966.61
2018-01-27T03:09:43.447Z,966.63
2018-01-27T03:10:43.388Z,966.61
2018-01-27T03:11:43.326Z,966.64
2018-01-27T03:12:43.266Z,966.65
2018-01-27T03:13:43.206Z,966.68
2018-01-27T03:14:43.149Z,966.70
2018-01-27T03:15:43.088Z,966.73
2018-01-27T03:16:43.026Z,966.74
2018-01-27T03:17:42.966Z,966.74
2018-01-27T03:18:42.911Z,966.73
2018-01-27T03:19:42.848Z,966.77
2018-01-27T03:20:42.788Z,966.76
2018-01-27T03:21:42.726Z,966.82
2018-01-27T03:22:42.666Z,966.77
2018-01-27T03:23:42.608Z,966.75
2018-01-27T03:24:42.547Z,966.76
2018-01-27T03:25:42.489Z,966.80
2018-01-27T03:26:42.427Z,966.81
2018-01-27T03:27:42.368Z,966.79
2018-01-27T03:28:42.308Z,966.81
2018-01-27T03:29:42.250Z,966.79
2018-01-27T03:30:42.192Z,966.83
2018-01-27T03:31:42.131Z,966.80
2018-01-27T03:32:42.072Z,966.80
2018-01-27T03:33:42.009Z,966.79
2018-01-27T03:34:41.950Z,966.77
2018-01-27T03:35:41.894Z,966.76
2018-01-27T03:36:41.829Z,966.78
2018-01-27T03:37:41.773Z,966.85
2018-01-27T03:38:41.709Z,966.86
2018-01-27T03:39:41.653Z,966.84
2018-01-27T03:40:41.590Z,966.82
2018-01-27T03:41:41.530Z,966.89
2018-01-27T03:42:41.469Z,966.87
2018-01-27T03:43:41.410Z,966.91
2018-01-27T03:44:41.351Z,966.92
2018-01-27T03:45:41.291Z,966.90
2018-01-27T03:46:41.231Z,966.88
2018-01-27T03:47:41.171Z,966.85
2018-01-27T03:48:41.114Z,966.90
2018-01-27T03:49:41.059Z,966.85
2018-01-27T03:50:40.995Z,966.84
2018-01-27T03:51:40.932Z,966.88
2018-01-27T03:52:40.873Z,966.91
2018-01-27T03:53:40.812Z,966.87
2018-01-27T03:54:40.753Z,966.92
2018-01-27T03:55:40.695Z,966.90
2018-01-27T03:56:40.674Z,966.98
2018-01-27T03:57:40.572Z,966.99
2018-01-27T03:58:40.518Z,967.03
2018-01-27T03:59:40.456Z,967.00
2018-01-27T04:00:40.396Z,967.02
2018-01-27T04:01:40.335Z,967.02
2018-01-27T04:02:40.272Z,967.01
2018-01-27T04:03:40.217Z,967.05
2018-01-27T04:04:40.153Z,967.02
2018-01-27T04:05:40.094Z,966.99
2018-01-27T04:06:40.035Z,966.99
2018-01-27T04:07:39.981Z,966.94
2018-01-27T04:08:39.913Z,966.99
2018-01-27T04:09:39.856Z,966.96
2018-01-27T04:10:39.796Z,966.97
2018-01-27T04:11:39.736Z,966.93
2018-01-27T04:12:39.675Z,966.92
2018-01-27T04:13:39.615Z,966.91
2018-01-27T04:14:39.557Z,966.94
2018-01-27T04:15:39.496Z,966.95
2018-01-27T04:16:39.437Z,966.98
2018-01-27T04:17:39.377Z,966.99
2018-01-27T04:18:39.317Z,967.02
2018-01-27T04:19:39.258Z,967.03
2018-01-27T04:20:39.199Z,967.00
2018-01-27T04:21:39.136Z,967.03
2018-01-27T04:22:39.076Z,967.01
2018-01-27T04:23:39.018Z,967.03
2018-01-27T04:24:38.956Z,967.05
2018-01-27T04:25:38.896Z,967.05
2018-01-27T04:26:38.837Z,967.10
2018-01-27T04:27:38.776Z,967.12
2018-01-27T04:28:38.715Z,967.11
2018-01-27T04:29:38.656Z,967.16
2018-01-27T04:30:38.596Z,967.17
2018-01-27T04:31:38.536Z,967.17
2018-01-27T04:32:38.476Z,967.21
2018-01-27T04:33:38.416Z,967.21
2018-01-27T04:34:38.356Z,967.21
2018-01-27T04:35:38.297Z,967.23
2018-01-27T04:36:38.236Z,967.20
2018-01-27T04:37:38.175Z,967.22
2018-01-27T04:38:38.115Z,967.16
2018-01-27T04:39:38.057Z,967.23
2018-01-27T04:40:37.998Z,967.19
2018-01-27T04:41:37.937Z,967.22
2018-01-27T04:42:37.916Z,967.28
2018-01-27T04:43:37.816Z,967.25
2018-01-27T04:44:37.758Z,967.25
2018-01-27T04:45:37.694Z,967.25
2018-01-27T04:46:37.636Z,967.23
2018-01-27T04:47:37.575Z,967.29
2018-01-27T04:48:37.516Z,967.34
2018-01-27T04:49:37.454Z,967.34
2018-01-27T04:50:37.395Z,967.32
2018-01-27T04:51:37.334Z,967.32
2018-01-27T04:52:37.274Z,967.36
2018-01-27T04:53:37.215Z,967.30
2018-01-27T04:54:37.153Z,967.30
2018-01-27T04:55:37.094Z,967.33
2018-01-27T04:56:37.032Z,967.35
2018-01-27T04:57:36.971Z,967.37
2018-01-27T04:58:36.912Z,967.38
2018-01-27T04:59:36.852Z,967.38
2018-01-27T05:00:36.791Z,967.42
2018-01-27T05:01:36.731Z,967.45
2018-01-27T05:02:36.683Z,967.49
2018-01-27T05:03:36.611Z,967.45
2018-01-27T05:04:36.549Z,967.51
2018-01-27T05:05:36.490Z,967.53
2018-01-27T05:06:36.432Z,967.55
2018-01-27T05:07:36.369Z,967.50
2018-01-27T05:08:36.311Z,967.57
2018-01-27T05:09:36.250Z,967.52
2018-01-27T05:10:36.189Z,967.53
2018-01-27T05:11:36.130Z,967.51
2018-01-27T05:12:36.069Z,967.54
2018-01-27T05:13:36.007Z,967.54
2018-01-27T05:14:35.949Z,967.56
2018-01-27T05:15:35.887Z,967.60
2018-01-27T05:16:35.826Z,967.60
2018-01-27T05:17:35.767Z,967.58
2018-01-27T05:18:35.705Z,967.60
2018-01-27T05:19:35.647Z,967.62
2018-01-27T05:20:35.585Z,967.59
2018-01-27T05:21:35.525Z,967.67
2018-01-27T05:22:35.468Z,967.68
2018-01-27T05:23:35.407Z,967.72
2018-01-27T05:24:35.399Z,967.71
2018-01-27T05:25:35.284Z,967.75
2018-01-27T05:26:35.224Z,967.70
2018-01-27T05:27:35.165Z,967.74
2018-01-27T05:28:35.103Z,967.73
2018-01-27T05:29:35.043Z,967.71
2018-01-27T05:30:34.984Z,967.76
2018-01-27T05:31:34.923Z,967.76
2018-01-27T05:32:34.861Z,967.84
2018-01-27T05:33:34.800Z,967.84
2018-01-27T05:34:34.744Z,967.89
2018-01-27T05:35:34.682Z,967.97
2018-01-27T05:36:34.619Z,967.96
2018-01-27T05:37:34.561Z,967.92
2018-01-27T05:38:34.502Z,967.95
2018-01-27T05:39:34.440Z,967.95
2018-01-27T05:40:34.380Z,968.00
2018-01-27T05:41:34.320Z,967.99
2018-01-27T05:42:34.260Z,968.02
2018-01-27T05:43:34.199Z,967.99
2018-01-27T05:44:34.138Z,968.07
2018-01-27T05:45:34.078Z,968.06
2018-01-27T05:46:34.016Z,968.07
2018-01-27T05:47:33.960Z,968.08
2018-01-27T05:48:33.901Z,968.10
2018-01-27T05:49:33.838Z,968.08
2018-01-27T05:50:33.784Z,968.14
2018-01-27T05:51:33.722Z,968.14
2018-01-27T05:52:33.656Z,968.17
2018-01-27T05:53:33.600Z,968.18
2018-01-27T05:54:33.589Z,968.17
2018-01-27T05:55:33.476Z,968.21
2018-01-27T05:56:33.413Z,968.23
2018-01-27T05:57:33.353Z,968.21
2018-01-27T05:58:33.294Z,968.21
2018-01-27T05:59:33.232Z,968.24
2018-01-27T06:00:33.172Z,968.24
2018-01-27T06:01:33.113Z,968.26
2018-01-27T06:02:33.051Z,968.25
2018-01-27T06:03:32.993Z,968.31
2018-01-27T06:04:32.934Z,968.26
2018-01-27T06:05:32.870Z,968.29
2018-01-27T06:06:32.811Z,968.27
2018-01-27T06:07:32.750Z,968.30
2018-01-27T06:08:32.689Z,968.34
2018-01-27T06:09:32.630Z,968.32
2018-01-27T06:10:32.569Z,968.37
2018-01-27T06:11:32.508Z,968.39
2018-01-27T06:12:32.447Z,968.41
2018-01-27T06:13:32.394Z,968.41
2018-01-27T06:14:32.327Z,968.45
2018-01-27T06:15:32.276Z,968.42
2018-01-27T06:16:32.215Z,968.42
2018-01-27T06:17:32.146Z,968.42
2018-01-27T06:18:32.087Z,968.42
2018-01-27T06:19:32.026Z,968.45
2018-01-27T06:20:31.963Z,968.44
2018-01-27T06:21:31.905Z,968.49
2018-01-27T06:22:31.845Z,968.48
2018-01-27T06:23:31.784Z,968.46
2018-01-27T06:24:31.722Z,968.46
2018-01-27T06:25:31.662Z,968.48
2018-01-27T06:26:31.604Z,968.45
2018-01-27T06:27:31.543Z,968.45
2018-01-27T06:28:31.482Z,968.50
2018-01-27T06:29:31.423Z,968.50
2018-01-27T06:30:31.362Z,968.51
2018-01-27T06:31:31.300Z,968.53
2018-01-27T06:32:31.238Z,968.56
2018-01-27T06:33:31.182Z,968.59
2018-01-27T06:34:31.118Z,968.63
2018-01-27T06:35:31.058Z,968.58
2018-01-27T06:36:31.002Z,968.62
2018-01-27T06:37:30.937Z,968.55
2018-01-27T06:38:30.877Z,968.52
2018-01-27T06:39:30.824Z,968.60
2018-01-27T06:40:30.758Z,968.56
2018-01-27T06:41:30.696Z,968.57
2018-01-27T06:42:30.635Z,968.56
2018-01-27T06:43:30.582Z,968.59
2018-01-27T06:44:30.514Z,968.61
2018-01-27T06:45:30.452Z,968.62
2018-01-27T06:46:30.395Z,968.64
2018-01-27T06:47:30.334Z,968.63
2018-01-27T06:48:30.274Z,968.70
2018-01-27T06:49:30.214Z,968.74
2018-01-27T06:50:30.154Z,968.87
2018-01-27T06:51:30.093Z,968.86
2018-01-27T06:52:30.032Z,968.94
2018-01-27T06:53:29.973Z,968.95
2018-01-27T06:54:29.912Z,969.02
2018-01-27T06:55:29.853Z,969.01
2018-01-27T06:56:29.797Z,969.10
2018-01-27T06:57:29.727Z,969.09
2018-01-27T06:58:29.670Z,969.14
2018-01-27T06:59:29.612Z,969.13
2018-01-27T07:00:29.552Z,969.12
2018-01-27T07:01:29.492Z,969.13
2018-01-27T07:02:29.433Z,969.21
2018-01-27T07:03:29.370Z,969.26
2018-01-27T07:04:29.308Z,969.25
2018-01-27T07:05:29.253Z,969.26
2018-01-27T07:06:29.188Z,969.27
2018-01-27T07:07:29.128Z,969.35
2018-01-27T07:08:29.068Z,969.40
2018-01-27T07:09:29.009Z,969.45
2018-01-27T07:10:28.946Z,969.46
2018-01-27T07:11:28.886Z,969.47
2018-01-27T07:12:28.825Z,969.51
2018-01-27T07:13:28.768Z,969.53
2018-01-27T07:14:28.705Z,969.52
2018-01-27T07:15:28.646Z,969.56
2018-01-27T07:16:28.591Z,969.56
2018-01-27T07:17:28.524Z,969.56
2018-01-27T07:18:28.462Z,969.59
2018-01-27T07:19:28.405Z,969.57
2018-01-27T07:20:28.343Z,969.62
2018-01-27T07:21:28.283Z,969.62
2018-01-27T07:22:28.223Z,969.64
2018-01-27T07:23:28.162Z,969.68
2018-01-27T07:24:28.104Z,969.69
2018-01-27T07:25:28.039Z,969.73
2018-01-27T07:26:27.976Z,969.77
2018-01-27T07:27:27.926Z,969.73
2018-01-27T07:28:27.869Z,969.73
2018-01-27T07:29:27.807Z,969.75
2018-01-27T07:30:27.743Z,969.73
2018-01-27T07:31:27.688Z,969.73
2018-01-27T07:32:27.624Z,969.72
2018-01-27T07:33:27.574Z,969.80
2018-01-27T07:34:27.512Z,969.80
2018-01-27T07:35:27.435Z,969.78
2018-01-27T07:36:27.394Z,969.80
2018-01-27T07:37:27.320Z,969.84
2018-01-27T07:38:27.260Z,969.84
2018-01-27T07:39:27.197Z,969.87
2018-01-27T07:40:27.137Z,969.94
2018-01-27T07:41:27.077Z,969.91
2018-01-27T07:42:27.016Z,969.93
2018-01-27T07:43:26.957Z,969.93
2018-01-27T07:44:26.896Z,969.97
2018-01-27T07:45:26.840Z,969.97
2018-01-27T07:46:26.776Z,969.97
2018-01-27T07:47:26.714Z,970.05
2018-01-27T07:48:26.654Z,970.00
2018-01-27T07:49:27.295Z,970.08
2018-01-27T07:50:26.542Z,970.13
2018-01-27T07:51:26.472Z,970.13
2018-01-27T07:52:26.413Z,970.18
2018-01-27T07:53:26.353Z,970.18
2018-01-27T07:54:26.292Z,970.20
2018-01-27T07:55:26.230Z,970.17
2018-01-27T07:56:26.174Z,970.22
2018-01-27T07:57:26.111Z,970.20
2018-01-27T07:58:26.058Z,970.19
2018-01-27T07:59:25.989Z,970.19
2018-01-27T08:00:25.927Z,970.20
2018-01-27T08:01:25.868Z,970.20
2018-01-27T08:02:25.809Z,970.20
2018-01-27T08:03:25.748Z,970.23
2018-01-27T08:04:25.685Z,970.18
2018-01-27T08:05:25.629Z,970.21
2018-01-27T08:06:25.568Z,970.19
2018-01-27T08:07:25.510Z,970.22
2018-01-27T08:08:25.445Z,970.26
2018-01-27T08:09:25.388Z,970.29
2018-01-27T08:10:25.326Z,970.31
2018-01-27T08:11:25.267Z,970.34
2018-01-27T08:12:25.208Z,970.36
2018-01-27T08:13:25.144Z,970.36
2018-01-27T08:14:25.087Z,970.38
2018-01-27T08:15:25.026Z,970.41
2018-01-27T08:16:24.964Z,970.39
2018-01-27T08:17:24.904Z,970.40
2018-01-27T08:18:24.845Z,970.41
2018-01-27T08:19:24.784Z,970.44
2018-01-27T08:20:24.724Z,970.50
2018-01-27T08:21:24.665Z,970.51
2018-01-27T08:22:24.608Z,970.51
2018-01-27T08:23:24.544Z,970.54
2018-01-27T08:24:24.484Z,970.57
2018-01-27T08:25:24.423Z,970.59
2018-01-27T08:26:24.365Z,970.62
2018-01-27T08:27:24.304Z,970.61
2018-01-27T08:28:24.245Z,970.63
2018-01-27T08:29:24.216Z,970.64
2018-01-27T08:30:24.124Z,970.63
2018-01-27T08:31:24.064Z,970.67
2018-01-27T08:32:24.008Z,970.63
2018-01-27T08:33:23.947Z,970.64
2018-01-27T08:34:23.885Z,970.69
2018-01-27T08:35:23.826Z,970.63
2018-01-27T08:36:23.764Z,970.61
2018-01-27T08:37:23.706Z,970.68
2018-01-27T08:38:23.647Z,970.65
2018-01-27T08:39:23.591Z,970.66
2018-01-27T08:40:23.528Z,970.73
2018-01-27T08:41:23.467Z,970.71
2018-01-27T08:42:23.408Z,970.70
2018-01-27T08:43:23.347Z,970.69
2018-01-27T08:44:23.287Z,970.77
2018-01-27T08:45:23.228Z,970.73
2018-01-27T08:46:23.195Z,970.76
2018-01-27T08:47:23.109Z,970.80
2018-01-27T08:48:23.048Z,970.76
2018-01-27T08:49:22.990Z,970.77
2018-01-27T08:50:22.933Z,970.79
2018-01-27T08:51:22.869Z,970.78
2018-01-27T08:52:22.810Z,970.77
2018-01-27T08:53:22.750Z,970.79
2018-01-27T08:54:22.691Z,970.84
2018-01-27T08:55:22.634Z,970.81
2018-01-27T08:56:22.570Z,970.88
2018-01-27T08:57:22.511Z,970.90
2018-01-27T08:58:22.452Z,970.85
2018-01-27T08:59:22.392Z,970.88
2018-01-27T09:00:22.335Z,970.93
2018-01-27T09:01:22.283Z,970.93
2018-01-27T09:02:22.214Z,970.93
2018-01-27T09:03:22.155Z,970.95
2018-01-27T09:04:22.094Z,970.99
2018-01-27T09:05:22.057Z,970.97
2018-01-27T09:06:21.977Z,970.99
2018-01-27T09:07:21.920Z,971.00
2018-01-27T09:08:21.857Z,971.06
2018-01-27T09:09:21.797Z,971.05
2018-01-27T09:10:21.740Z,971.10
2018-01-27T09:11:21.681Z,971.06
2018-01-27T09:12:21.621Z,971.06
2018-01-27T09:13:21.561Z,971.10
2018-01-27T09:14:21.502Z,971.12
2018-01-27T09:15:21.441Z,971.11
2018-01-27T09:16:21.382Z,971.13
2018-01-27T09:17:21.325Z,971.10
2018-01-27T09:18:21.267Z,971.11
2018-01-27T09:19:21.206Z,971.18
2018-01-27T09:20:21.145Z,971.19
2018-01-27T09:21:21.087Z,971.22
2018-01-27T09:22:21.028Z,971.21
2018-01-27T09:23:20.970Z,971.22
2018-01-27T09:24:20.916Z,971.22
2018-01-27T09:25:20.849Z,971.21
2018-01-27T09:26:20.806Z,971.20
2018-01-27T09:27:20.731Z,971.21
2018-01-27T09:28:20.677Z,971.21
2018-01-27T09:29:20.613Z,971.22
2018-01-27T09:30:20.554Z,971.24
2018-01-27T09:31:20.494Z,971.25
2018-01-27T09:32:20.438Z,971.26
2018-01-27T09:33:20.376Z,971.30
2018-01-27T09:34:20.317Z,971.29
2018-01-27T09:35:20.258Z,971.33
2018-01-27T09:36:20.200Z,971.34
2018-01-27T09:37:20.143Z,971.34
2018-01-27T09:38:20.081Z,971.33
2018-01-27T09:39:20.026Z,971.32
2018-01-27T09:40:19.961Z,971.34
2018-01-27T09:41:19.901Z,971.37
2018-01-27T09:42:19.843Z,971.31
2018-01-27T09:43:19.793Z,971.34
2018-01-27T09:44:19.724Z,971.33
2018-01-27T09:45:19.667Z,971.34
2018-01-27T09:46:19.608Z,971.33
2018-01-27T09:47:19.548Z,971.32
2018-01-27T09:48:19.488Z,971.32
2018-01-27T09:49:19.431Z,971.32
2018-01-27T09:50:19.368Z,971.33
2018-01-27T09:51:19.312Z,971.38
2018-01-27T09:52:19.254Z,971.39
2018-01-27T09:53:19.197Z,971.36
2018-01-27T09:54:19.139Z,971.35
2018-01-27T09:55:19.078Z,971.39
2018-01-27T09:56:19.016Z,971.40
2018-01-27T09:57:18.958Z,971.35
2018-01-27T09:58:18.900Z,971.35
2018-01-27T09:59:18.842Z,971.33
2018-01-27T10:00:18.782Z,971.37
2018-01-27T10:01:18.724Z,971.35
2018-01-27T10:02:18.667Z,971.33
2018-01-27T10:03:18.605Z,971.32
2018-01-27T10:04:18.547Z,971.33
2018-01-27T10:05:18.488Z,971.32
2018-01-27T10:06:18.431Z,971.35
2018-01-27T10:07:18.371Z,971.34
2018-01-27T10:08:18.311Z,971.38
2018-01-27T10:09:18.252Z,971.38
2018-01-27T10:10:18.192Z,971.40
2018-01-27T10:11:18.134Z,971.43
2018-01-27T10:12:18.075Z,971.38
2018-01-27T10:13:18.018Z,971.41
2018-01-27T10:14:17.957Z,971.45
2018-01-27T10:15:17.905Z,971.47
2018-01-27T10:16:17.838Z,971.40
2018-01-27T10:17:17.780Z,971.47
2018-01-27T10:18:17.721Z,971.45
2018-01-27T10:19:17.663Z,971.50
2018-01-27T10:20:17.602Z,971.43
2018-01-27T10:21:17.545Z,971.49
2018-01-27T10:22:17.486Z,971.47
2018-01-27T10:23:17.427Z,971.47
2018-01-27T10:24:17.366Z,971.50
2018-01-27T10:25:17.310Z,971.47
2018-01-27T10:26:17.250Z,971.47
2018-01-27T10:27:17.191Z,971.48
2018-01-27T10:28:17.131Z,971.48
2018-01-27T10:29:17.072Z,971.51
2018-01-27T10:30:17.018Z,971.47
2018-01-27T10:31:16.959Z,971.41
2018-01-27T10:32:16.899Z,971.40
2018-01-27T10:33:16.839Z,971.39
2018-01-27T10:34:16.785Z,971.37
2018-01-27T10:35:16.720Z,971.41
2018-01-27T10:36:16.663Z,971.36
2018-01-27T10:37:16.605Z,971.39
2018-01-27T10:38:16.546Z,971.39
2018-01-27T10:39:16.486Z,971.40
2018-01-27T10:40:16.426Z,971.44
2018-01-27T10:41:16.369Z,971.44
2018-01-27T10:42:16.313Z,971.40
2018-01-27T10:43:16.252Z,971.34
2018-01-27T10:44:16.194Z,971.37
2018-01-27T10:45:16.135Z,971.37
2018-01-27T10:46:16.080Z,971.41
2018-01-27T10:47:16.021Z,971.42
2018-01-27T10:48:15.961Z,971.45
2018-01-27T10:49:15.903Z,971.44
2018-01-27T10:50:15.843Z,971.43
2018-01-27T10:51:15.785Z,971.42
2018-01-27T10:52:15.727Z,971.43
2018-01-27T10:53:15.690Z,971.47
2018-01-27T10:54:15.612Z,971.49
2018-01-27T10:55:15.555Z,971.47
2018-01-27T10:56:15.494Z,971.49
2018-01-27T10:57:15.435Z,971.49
2018-01-27T10:58:15.378Z,971.49
2018-01-27T10:59:15.321Z,971.49
2018-01-27T11:00:15.261Z,971.48
2018-01-27T11:01:15.205Z,971.46
2018-01-27T11:02:15.146Z,971.47
2018-01-27T11:03:15.086Z,971.45
2018-01-27T11:04:15.028Z,971.46
2018-01-27T11:05:14.969Z,971.46
2018-01-27T11:06:14.911Z,971.43
2018-01-27T11:07:14.853Z,971.37
2018-01-27T11:08:14.794Z,971.39
2018-01-27T11:09:14.736Z,971.40
2018-01-27T11:10:14.677Z,971.37
2018-01-27T11:11:14.620Z,971.36
2018-01-27T11:12:14.566Z,971.39
2018-01-27T11:13:14.502Z,971.39
2018-01-27T11:14:14.445Z,971.40
2018-01-27T11:15:14.391Z,971.37
2018-01-27T11:16:14.327Z,971.37
2018-01-27T11:17:14.269Z,971.34
2018-01-27T11:18:14.212Z,971.38
2018-01-27T11:19:14.152Z,971.38
2018-01-27T11:20:14.093Z,971.36
2018-01-27T11:21:14.037Z,971.39
2018-01-27T11:22:13.978Z,971.41
2018-01-27T11:23:13.921Z,971.41
2018-01-27T11:24:13.864Z,971.41
2018-01-27T11:25:13.804Z,971.43
2018-01-27T11:26:13.747Z,971.44
2018-01-27T11:27:13.688Z,971.47
2018-01-27T11:28:13.629Z,971.52
2018-01-27T11:29:13.571Z,971.50
2018-01-27T11:30:13.523Z,971.59
2018-01-27T11:31:13.458Z,971.59
2018-01-27T11:32:13.396Z,971.60
2018-01-27T11:33:13.346Z,971.60
2018-01-27T11:34:13.281Z,971.59
2018-01-27T11:35:13.217Z,971.60
2018-01-27T11:36:13.165Z,971.56
2018-01-27T11:37:13.163Z,971.63
2018-01-27T11:38:13.047Z,971.65
2018-01-27T11:39:12.985Z,971.69
2018-01-27T11:40:12.933Z,971.78
2018-01-27T11:41:12.873Z,971.82
2018-01-27T11:42:12.816Z,971.78
2018-01-27T11:43:12.760Z,971.80
2018-01-27T11:44:12.698Z,971.82
2018-01-27T11:45:12.641Z,971.80
2018-01-27T11:46:12.582Z,971.79
2018-01-27T11:47:12.526Z,971.82
2018-01-27T11:48:12.468Z,971.84
2018-01-27T11:49:12.408Z,971.91
2018-01-27T11:50:12.350Z,971.93
2018-01-27T11:51:12.293Z,971.95
2018-01-27T11:52:12.233Z,971.95
2018-01-27T11:53:12.176Z,971.92
2018-01-27T11:54:12.118Z,971.96
2018-01-27T11:55:12.060Z,971.98
2018-01-27T11:56:12.003Z,971.98
2018-01-27T11:57:11.943Z,971.99
2018-01-27T11:58:11.885Z,971.94
2018-01-27T11:59:11.826Z,971.96
2018-01-27T12:00:11.769Z,971.98
2018-01-27T12:01:11.709Z,972.05
2018-01-27T12:02:11.651Z,972.09
2018-01-27T12:03:11.594Z,972.13
2018-01-27T12:04:11.551Z,972.14
2018-01-27T12:05:11.477Z,972.17
2018-01-27T12:06:11.421Z,972.15
2018-01-27T12:07:11.358Z,972.17
2018-01-27T12:08:11.301Z,972.18
2018-01-27T12:09:11.244Z,972.23
2018-01-27T12:10:11.187Z,972.20
2018-01-27T12:11:11.127Z,972.22
2018-01-27T12:12:11.067Z,972.26
2018-01-27T12:13:11.008Z,972.22
2018-01-27T12:14:10.949Z,972.21
2018-01-27T12:15:10.892Z,972.26
2018-01-27T12:16:10.833Z,972.23
2018-01-27T12:17:10.775Z,972.24
2018-01-27T12:18:10.716Z,972.22
2018-01-27T12:19:10.658Z,972.25
2018-01-27T12:20:10.600Z,972.19
2018-01-27T12:21:10.540Z,972.22
2018-01-27T12:22:10.483Z,972.19
2018-01-27T12:23:10.423Z,972.24
2018-01-27T12:24:10.366Z,972.19
2018-01-27T12:25:10.305Z,972.19
2018-01-27T12:26:10.247Z,972.20
2018-01-27T12:27:10.208Z,972.25
2018-01-27T12:28:10.129Z,972.23